Time;durP1;ratioP1;P1;durP2;ratioP2;P2;SDS_P1;SDS_P2;PMS_P1;PMS_P2;Temp;Humidity;BMP_temperature;BMP_pressure;BME280_temperature;BME280_humidity;BME280_pressure;Samples;Min_cycle;Max_cycle;Signal;HPM_P1;HPM_P2
2022/06/29 00:00:30;;;;;;;11.03;10.03;;;21.40;74.70;;;20.58;66.38;97818.44;5020543;27;20459;-71
2022/06/29 00:02:58;;;;;;;9.90;9.00;;;21.30;74.90;;;20.54;66.53;97807.19;5017490;27;20500;-71
2022/06/29 00:05:27;;;;;;;10.33;9.53;;;21.30;75.30;;;20.62;66.74;97820.31;5016774;28;20467;-71
2022/06/29 00:07:55;;;;;;;10.43;9.60;;;21.30;75.70;;;20.45;66.51;97776.81;5017489;28;20553;-71
2022/06/29 00:10:25;;;;;;;10.30;9.40;;;21.40;75.90;;;20.59;66.89;97815.41;5032582;28;20465;-71
2022/06/29 00:12:53;;;;;;;10.60;9.80;;;21.40;76.20;;;20.60;67.16;97811.56;5018772;27;20596;-70
2022/06/29 00:15:22;;;;;;;10.77;9.87;;;21.30;76.50;;;20.64;67.28;97811.81;5023348;27;20455;-71
2022/06/29 00:17:50;;;;;;;10.73;9.83;;;21.40;76.80;;;20.67;67.07;97806.56;5016672;28;20984;-70
2022/06/29 00:20:18;;;;;;;9.50;8.70;;;21.40;77.00;;;20.62;67.27;97801.13;5038241;27;20458;-70
2022/06/29 00:22:47;;;;;;;11.00;10.00;;;21.40;77.10;;;20.70;67.25;97818.06;5021829;28;20555;-70
2022/06/29 00:25:15;;;;;;;9.23;8.43;;;21.40;77.20;;;20.71;67.19;97819.72;5021318;27;20465;-70
2022/06/29 00:27:45;;;;;;;10.30;9.50;;;21.40;77.30;;;20.83;66.77;97833.91;5021854;28;20459;-70
2022/06/29 00:30:13;;;;;;;8.80;8.10;;;21.50;77.30;;;20.78;66.46;97796.34;5018791;27;20513;-70
2022/06/29 00:32:41;;;;;;;9.50;8.60;;;21.60;77.10;;;21.14;65.57;97825.38;5020079;28;20487;-70
2022/06/29 00:35:11;;;;;;;10.67;9.77;;;21.80;76.70;;;21.04;66.33;97825.50;5031409;28;21031;-70
2022/06/29 00:37:39;;;;;;;10.37;9.57;;;21.70;77.00;;;21.02;66.11;97824.97;5022672;28;20468;-72
2022/06/29 00:40:08;;;;;;;14.00;9.90;;;21.70;76.90;;;20.94;66.18;97827.22;5024075;27;20462;-70
2022/06/29 00:42:36;;;;;;;10.00;9.20;;;21.70;77.10;;;21.13;66.05;97821.00;5036598;27;20460;-70
2022/06/29 00:45:05;;;;;;;9.33;8.63;;;21.80;77.10;;;21.22;65.49;97818.44;5022751;27;20459;-69
2022/06/29 00:47:33;;;;;;;10.13;9.37;;;21.90;77.00;;;21.20;65.61;97813.25;5016584;27;20461;-70
2022/06/29 00:50:00;;;;;;;10.17;9.30;;;21.90;77.10;;;21.16;65.85;97825.94;5020146;27;20491;-71
2022/06/29 00:52:30;;;;;;;9.57;8.77;;;21.80;77.20;;;21.13;66.22;97817.47;5020655;27;20475;-69
2022/06/29 00:55:02;;;;;;;10.10;9.03;;;21.80;77.50;;;21.21;65.90;97823.13;5017701;27;20922;-70
2022/06/29 00:57:31;;;;;;;10.00;9.20;;;21.80;77.60;;;21.00;66.57;97824.44;5023427;27;20455;-69
2022/06/29 01:00:00;;;;;;;8.43;7.83;;;21.70;77.60;;;20.88;67.43;97817.41;5022677;27;20463;-69
2022/06/29 01:02:32;;;;;;;9.60;8.80;;;21.70;78.10;;;20.70;68.31;97804.34;5034857;28;20981;-69
2022/06/29 01:05:00;;;;;;;8.60;8.00;;;21.50;78.70;;;20.57;68.83;97806.66;5015321;28;20458;-69
2022/06/29 01:07:30;;;;;;;10.03;9.33;;;21.40;79.20;;;20.45;69.47;97808.94;5019185;27;20481;-69
2022/06/29 01:09:58;;;;;;;10.70;9.80;;;21.20;79.70;;;20.35;69.93;97807.88;5021062;27;20853;-70
2022/06/29 01:12:26;;;;;;;9.43;8.73;;;21.20;80.10;;;20.39;69.84;97808.16;5018529;27;20872;-69
2022/06/29 01:14:54;;;;;;;10.67;9.83;;;21.10;80.50;;;20.34;70.05;97808.19;5018310;27;20482;-70
2022/06/29 01:17:23;;;;;;;10.00;9.20;;;21.10;80.80;;;20.32;70.48;97804.88;5022089;28;20499;-70
2022/06/29 01:19:52;;;;;;;10.30;9.50;;;21.10;81.10;;;20.28;70.62;97796.44;5020981;28;20938;-70
2022/06/29 01:22:23;;;;;;;10.70;9.80;;;21.10;81.40;;;20.29;70.82;97795.31;5019707;28;20546;-70
2022/06/29 01:24:51;;;;;;;9.63;8.93;;;21.00;81.50;;;20.22;70.95;97797.56;5022929;28;20459;-69
2022/06/29 01:27:23;;;;;;;9.70;9.00;;;21.00;81.70;;;20.24;70.67;97781.63;5015418;28;20517;-69
2022/06/29 01:29:50;;;;;;;9.90;9.10;;;21.00;81.90;;;20.29;70.65;97792.59;5023037;28;20515;-70
2022/06/29 01:32:17;;;;;;;9.33;8.63;;;21.00;82.10;;;20.15;71.16;97799.81;5016439;27;20490;-70
2022/06/29 01:34:45;;;;;;;10.20;9.40;;;21.00;82.20;;;20.09;71.44;97796.28;5020072;27;20467;-70
2022/06/29 01:37:13;;;;;;;10.77;9.90;;;20.90;82.50;;;20.02;71.60;97793.84;5019067;28;20458;-71
2022/06/29 01:39:42;;;;;;;10.40;9.70;;;20.80;82.70;;;20.08;71.59;97787.22;5028915;27;20462;-70
2022/06/29 01:42:11;;;;;;;10.70;9.80;;;20.80;82.90;;;20.01;71.88;97780.41;5022737;28;20506;-70
2022/06/29 01:44:38;;;;;;;10.20;9.30;;;20.80;83.00;;;19.73;72.04;97742.44;5021384;28;20469;-69
2022/06/29 01:47:06;;;;;;;11.30;10.30;;;20.70;83.10;;;19.90;72.08;97772.22;5029436;27;20967;-71
2022/06/29 01:49:34;;;;;;;10.10;9.40;;;20.70;83.40;;;19.92;72.08;97766.47;5020548;28;20461;-71
2022/06/29 01:52:01;;;;;;;10.90;10.00;;;20.70;83.40;;;19.93;72.00;97771.69;5020107;27;20470;-69
2022/06/29 01:54:29;;;;;;;10.53;9.53;;;20.70;83.50;;;19.95;72.13;97765.94;5022211;27;20501;-70
2022/06/29 01:56:58;;;;;;;11.30;10.50;;;20.70;83.60;;;19.88;72.27;97762.63;5026717;27;20458;-70
2022/06/29 01:59:25;;;;;;;12.07;11.00;;;20.70;83.70;;;19.88;72.62;97768.13;5015172;27;20470;-70
2022/06/29 02:01:52;;;;;;;10.47;9.60;;;20.60;84.00;;;19.83;72.80;97777.19;5017699;27;20480;-69
2022/06/29 02:04:20;;;;;;;10.67;9.77;;;20.60;84.10;;;19.81;72.81;97772.00;5015146;28;20473;-70
2022/06/29 02:06:47;;;;;;;11.40;10.50;;;20.60;84.30;;;19.76;73.22;97777.50;5020776;28;20465;-69
2022/06/29 02:09:14;;;;;;;10.97;10.13;;;20.50;84.60;;;19.84;73.18;97778.03;5025855;27;20603;-70
2022/06/29 02:11:42;;;;;;;11.07;10.00;;;20.60;84.90;;;19.75;72.91;97767.63;5020256;27;20522;-70
2022/06/29 02:14:12;;;;;;;10.57;9.77;;;20.50;84.70;;;19.71;73.44;97772.03;5022399;27;20468;-70
2022/06/29 02:16:40;;;;;;;10.30;9.50;;;20.50;84.80;;;19.72;73.05;97781.09;5018650;27;20565;-70
2022/06/29 02:19:07;;;;;;;11.57;10.63;;;20.50;84.90;;;19.86;72.91;97775.81;5018176;28;20873;-70
2022/06/29 02:21:35;;;;;;;11.43;10.53;;;20.60;84.90;;;19.85;72.86;97779.66;5019781;27;20464;-70
2022/06/29 02:24:02;;;;;;;11.17;10.27;;;20.60;84.90;;;19.91;72.75;97778.50;5015554;28;20519;-70
2022/06/29 02:26:30;;;;;;;11.10;10.10;;;20.60;84.80;;;19.78;73.41;97766.25;5020555;28;20485;-69
2022/06/29 02:28:57;;;;;;;12.77;11.40;;;20.60;85.10;;;19.87;72.90;97763.75;5019368;27;20473;-69
2022/06/29 02:36:56;;;;;;;11.30;10.20;;;20.60;84.90;;;19.82;73.12;97765.41;5022191;28;20486;-70
2022/06/29 02:39:23;;;;;;;12.37;11.37;;;20.60;85.10;;;19.62;73.70;97765.50;5013771;27;20467;-70
2022/06/29 02:41:51;;;;;;;12.47;11.47;;;20.50;85.30;;;19.62;74.05;97760.03;5018469;28;20465;-69
2022/06/29 02:44:18;;;;;;;12.93;11.93;;;20.40;85.50;;;19.47;74.34;97764.47;5029048;27;20464;-70
2022/06/29 02:46:46;;;;;;;12.57;11.67;;;20.30;85.60;;;19.60;73.81;97751.28;5019691;27;20461;-70
2022/06/29 02:49:14;;;;;;;13.23;12.10;;;20.40;85.80;;;19.52;74.13;97755.41;5020354;28;20454;-69
2022/06/29 02:51:41;;;;;;;12.53;11.53;;;20.40;85.90;;;19.54;74.38;97753.22;5023329;28;20474;-71
2022/06/29 02:54:09;;;;;;;12.17;11.17;;;20.40;86.10;;;19.61;73.87;97755.63;5028962;27;20483;-70
2022/06/29 02:56:36;;;;;;;12.43;11.43;;;20.30;85.90;;;19.60;74.00;97743.03;5019683;27;20482;-70
2022/06/29 02:59:04;;;;;;;13.00;12.00;;;20.30;86.00;;;19.57;74.29;97747.19;5021853;28;20511;-71
2022/06/29 03:01:31;;;;;;;12.50;11.40;;;20.30;86.00;;;19.57;74.14;97749.09;5011255;28;20963;-70
2022/06/29 03:03:59;;;;;;;13.60;12.60;;;20.40;86.20;;;19.42;74.45;97745.31;5012669;28;20855;-71
2022/06/29 03:06:26;;;;;;;13.33;12.17;;;20.30;86.10;;;19.42;74.84;97750.78;5014898;28;20467;-71
2022/06/29 03:08:54;;;;;;;13.83;12.83;;;20.20;86.20;;;19.43;74.63;97757.09;5021797;28;20473;-69
2022/06/29 03:11:21;;;;;;;14.10;12.87;;;20.20;86.40;;;19.47;74.39;97748.03;5021016;28;20460;-70
2022/06/29 03:13:49;;;;;;;13.13;12.03;;;20.20;86.40;;;19.31;74.99;97743.72;5019431;28;20478;-72
2022/06/29 03:16:16;;;;;;;15.80;11.80;;;20.20;86.70;;;19.39;74.74;97754.91;5018284;28;20960;-69
2022/06/29 03:18:44;;;;;;;14.20;13.10;;;20.10;86.60;;;19.35;74.92;97755.78;5019422;28;20464;-68
2022/06/29 03:21:13;;;;;;;13.17;11.80;;;20.10;86.90;;;19.38;75.01;97769.69;5037584;27;20450;-70
2022/06/29 03:23:40;;;;;;;12.40;11.37;;;20.10;87.10;;;19.36;75.12;97758.22;5023156;28;20482;-69
2022/06/29 03:26:07;;;;;;;12.93;11.93;;;20.10;87.10;;;19.31;75.08;97755.50;5022023;28;20461;-70
2022/06/29 03:28:35;;;;;;;13.43;12.27;;;20.10;87.00;;;19.28;75.40;97755.22;5014192;28;20462;-69
2022/06/29 03:31:02;;;;;;;12.03;10.83;;;20.10;87.30;;;19.20;75.66;97751.97;5011882;28;20465;-69
2022/06/29 03:33:30;;;;;;;13.67;12.37;;;20.00;87.40;;;19.19;75.82;97753.09;5023949;28;20478;-68
2022/06/29 03:35:57;;;;;;;13.10;12.17;;;20.00;87.70;;;19.00;76.16;97732.84;5025229;28;20470;-69
2022/06/29 03:38:26;;;;;;;12.73;11.73;;;20.00;87.80;;;19.17;76.23;97758.00;5021834;28;20471;-71
2022/06/29 03:40:53;;;;;;;13.83;12.73;;;20.00;88.20;;;19.21;76.00;97750.88;5023192;28;20469;-68
2022/06/29 03:43:21;;;;;;;13.90;12.70;;;19.90;88.20;;;19.29;75.67;97740.44;5037525;27;20551;-69
2022/06/29 03:45:48;;;;;;;13.17;12.00;;;20.00;88.00;;;19.25;75.88;97751.97;5013298;28;21262;-70
2022/06/29 03:48:16;;;;;;;13.13;12.03;;;20.00;87.90;;;19.21;76.03;97756.34;5010104;28;20578;-69
2022/06/29 03:50:43;;;;;;;13.80;12.70;;;20.00;88.00;;;19.17;76.36;97754.44;5019624;28;20995;-69
2022/06/29 03:53:11;;;;;;;13.20;12.10;;;20.00;88.40;;;19.18;76.31;97756.09;5022694;28;20478;-68
2022/06/29 03:55:39;;;;;;;13.57;12.50;;;20.00;88.50;;;19.23;76.26;97759.63;5018281;28;20453;-70
2022/06/29 03:58:07;;;;;;;12.87;11.87;;;20.00;88.60;;;19.23;76.18;97754.16;5019808;28;20443;-69
2022/06/29 04:00:35;;;;;;;14.30;12.90;;;20.00;88.60;;;19.35;75.65;97766.72;5020104;28;20522;-69
2022/06/29 04:03:02;;;;;;;13.33;12.33;;;20.10;88.30;;;19.15;75.88;97753.91;5019101;28;20543;-69
2022/06/29 04:05:29;;;;;;;13.40;12.40;;;20.10;88.20;;;19.27;75.88;97767.28;5019859;28;20476;-70
2022/06/29 04:07:57;;;;;;;14.07;12.77;;;20.10;88.20;;;19.26;76.16;97774.69;5021300;28;20456;-70
2022/06/29 04:10:24;;;;;;;13.90;12.60;;;20.10;88.30;;;19.29;76.02;97770.56;5018853;28;21184;-71
2022/06/29 04:12:53;;;;;;;13.73;12.63;;;20.10;88.30;;;19.34;75.72;97781.53;5019675;28;20491;-70
2022/06/29 04:15:20;;;;;;;13.23;12.20;;;20.10;88.20;;;19.46;75.13;97771.03;5017709;28;20485;-69
2022/06/29 04:17:47;;;;;;;14.10;12.90;;;20.20;87.70;;;19.50;75.29;97772.16;5020031;28;20806;-70
2022/06/29 04:22:56;;;;;;;12.90;11.63;;;20.30;87.40;;;19.56;74.22;97744.72;5017566;28;20508;-70
2022/06/29 04:25:24;;;;;;;14.20;13.10;;;20.50;87.00;;;19.88;73.44;97779.09;5021080;28;20456;-70
2022/06/29 04:27:52;;;;;;;13.63;12.53;;;20.70;86.40;;;20.20;72.30;97775.91;5017830;28;20464;-70
2022/06/29 04:30:20;;;;;;;13.03;11.87;;;21.00;85.60;;;20.55;70.77;97777.84;5021978;27;21297;-70
2022/06/29 04:32:48;;;;;;;14.00;12.80;;;21.40;84.60;;;21.21;68.52;97764.63;5022490;28;20477;-70
2022/06/29 04:35:15;;;;;;;12.70;11.73;;;22.00;83.30;;;21.21;68.36;97770.13;5022627;27;20985;-70
2022/06/29 04:37:42;;;;;;;12.83;11.63;;;22.20;82.40;;;21.17;67.97;97753.41;5028997;27;20471;-71
2022/06/29 04:40:11;;;;;;;12.53;11.53;;;22.30;82.00;;;21.07;68.57;97756.25;5024674;27;20466;-70
2022/06/29 04:42:39;;;;;;;13.90;12.70;;;22.10;82.30;;;21.03;68.85;97752.47;5022255;27;20971;-70
2022/06/29 04:46:19;;;;;;;13.20;12.10;;;22.00;82.40;;;20.89;69.01;97746.81;5022973;27;21014;-72
2022/06/29 04:48:00;;;;;;;12.57;11.57;;;21.90;82.50;;;20.91;69.01;97739.13;5025572;28;20489;-71
2022/06/29 04:50:29;;;;;;;12.43;11.43;;;21.90;82.50;;;21.34;67.60;97741.13;5023592;27;20478;-71
2022/06/29 04:52:56;;;;;;;12.27;11.17;;;22.10;82.00;;;21.81;65.84;97735.09;5022565;28;21090;-71
2022/06/29 04:55:26;;;;;;;11.10;10.10;;;22.60;81.00;;;22.05;64.90;97733.06;5014669;27;20870;-72
2022/06/29 04:57:53;;;;;;;11.67;10.80;;;23.10;80.20;;;22.53;63.27;97735.94;5037219;28;20845;-70
2022/06/29 05:00:22;;;;;;;11.73;10.63;;;23.60;78.90;;;23.21;61.35;97733.63;5030883;27;20818;-70
2022/06/29 05:02:49;;;;;;;10.37;9.50;;;24.10;78.10;;;23.63;59.32;97723.38;5021146;28;20980;-70
2022/06/29 05:05:17;;;;;;;11.17;10.07;;;24.80;75.90;;;24.16;57.89;97728.59;5042278;28;20534;-73
2022/06/29 05:07:44;;;;;;;10.50;9.70;;;25.20;74.70;;;23.92;58.41;97729.69;5023018;28;20488;-72
2022/06/29 05:10:12;;;;;;;10.73;9.63;;;25.20;73.50;;;23.51;59.54;97731.38;5037236;27;20959;-72
2022/06/29 05:12:39;;;;;;;10.10;9.30;;;24.80;74.10;;;23.12;60.67;97733.47;5011176;28;20467;-73
2022/06/29 05:15:09;;;;;;;10.50;9.60;;;24.40;74.60;;;23.19;60.65;97738.59;5022098;27;20480;-72
2022/06/29 05:17:39;;;;;;;11.23;10.20;;;24.30;74.70;;;23.15;60.85;97741.16;5018076;28;20451;-72
2022/06/29 05:20:10;;;;;;;10.43;9.53;;;24.30;74.90;;;22.18;63.47;97744.44;5020707;28;20466;-72
2022/06/29 05:22:37;;;;;;;11.20;10.30;;;23.60;75.50;;;22.03;65.21;97745.50;5028136;27;20444;-73
2022/06/29 05:25:07;;;;;;;11.53;10.30;;;23.20;77.60;;;22.66;63.03;97759.09;5018968;28;20536;-72
2022/06/29 05:27:34;;;;;;;10.00;9.20;;;23.30;77.70;;;22.39;63.44;97752.38;5015862;28;20476;-72
2022/06/29 05:30:02;;;;;;;11.00;9.97;;;23.30;77.50;;;21.81;65.25;97765.31;5024893;28;20459;-72
2022/06/29 05:32:29;;;;;;;11.50;10.57;;;22.80;78.10;;;21.64;66.73;97763.84;5025178;28;20465;-73
2022/06/29 05:34:58;;;;;;;10.50;9.60;;;22.50;79.50;;;21.46;67.03;97770.94;5029009;27;20486;-74
2022/06/29 05:37:26;;;;;;;11.77;10.87;;;22.30;79.80;;;21.50;68.53;97770.06;5021028;28;20456;-73
2022/06/29 05:39:53;;;;;;;10.73;9.83;;;22.30;81.50;;;21.42;67.32;97770.69;5030373;27;20465;-73
2022/06/29 05:42:20;;;;;;;12.00;11.07;;;22.30;80.70;;;21.17;67.66;97772.66;5024786;27;20469;-68
2022/06/29 05:44:47;;;;;;;12.73;10.40;;;22.10;80.60;;;21.14;68.16;97775.94;5019790;28;20464;-68
2022/06/29 05:47:15;;;;;;;14.37;11.43;;;21.90;81.10;;;20.91;68.48;97756.44;5016075;28;20529;-69
2022/06/29 05:49:43;;;;;;;11.03;10.23;;;21.80;81.50;;;21.17;68.05;97764.41;5019053;28;21736;-68
2022/06/29 05:52:12;;;;;;;12.77;11.77;;;21.90;81.60;;;20.97;68.75;97765.44;5019884;27;20461;-68
2022/06/29 05:54:39;;;;;;;11.13;10.30;;;21.90;81.50;;;20.84;68.92;97766.91;5013767;27;20475;-67
2022/06/29 05:57:07;;;;;;;11.53;10.63;;;21.80;81.70;;;21.20;67.97;97776.72;5019532;27;20945;-69
2022/06/29 05:59:34;;;;;;;12.17;10.97;;;21.90;81.60;;;21.23;68.13;97776.97;5024674;27;20477;-70
2022/06/29 06:02:02;;;;;;;10.47;9.57;;;22.00;81.60;;;21.38;67.41;97769.66;5026169;27;20453;-71
2022/06/29 06:04:29;;;;;;;11.83;10.60;;;22.10;81.30;;;21.51;67.27;97768.94;5034951;28;20462;-69
2022/06/29 06:06:56;;;;;;;11.00;9.87;;;22.20;81.30;;;21.77;66.48;97774.16;5018594;28;20448;-70
2022/06/29 06:09:27;;;;;;;11.10;10.10;;;22.40;81.20;;;21.44;66.78;97773.97;5017900;28;20453;-73
2022/06/29 06:11:55;;;;;;;10.17;9.37;;;22.30;80.60;;;21.47;67.28;97778.06;5019735;28;20455;-72
2022/06/29 06:14:22;;;;;;;10.67;9.80;;;22.20;81.10;;;21.43;66.85;97774.28;5017869;28;20478;-73
2022/06/29 06:16:50;;;;;;;10.97;9.93;;;22.30;80.70;;;21.09;68.11;97781.50;5020413;28;20451;-72
2022/06/29 06:19:17;;;;;;;11.47;10.37;;;22.10;81.20;;;21.09;68.40;97771.34;5015932;28;20978;-75
2022/06/29 06:21:45;;;;;;;13.13;9.03;;;21.90;81.60;;;21.19;68.36;97781.41;5019909;28;20778;-72
2022/06/29 06:24:12;;;;;;;11.40;10.33;;;21.90;81.80;;;21.15;68.63;97788.56;5022225;28;20953;-72
2022/06/29 06:26:46;;;;;;;9.67;8.93;;;21.90;81.80;;;21.17;68.65;97797.38;5019686;28;20473;-72
2022/06/29 06:29:13;;;;;;;10.23;9.23;;;21.90;81.90;;;20.97;69.19;97790.16;5038438;28;20443;-72
2022/06/29 06:31:40;;;;;;;10.60;9.70;;;21.80;82.00;;;20.97;69.49;97789.31;5025152;28;20463;-74
2022/06/29 06:34:08;;;;;;;12.00;11.00;;;21.80;82.50;;;21.21;68.67;97792.91;5022518;28;21243;-71
2022/06/29 06:36:35;;;;;;;10.07;9.17;;;21.90;82.30;;;21.41;68.12;97779.25;5033747;27;20550;-74
2022/06/29 06:39:03;;;;;;;11.00;9.93;;;22.00;82.10;;;21.43;67.78;97793.50;5015971;28;20450;-74
2022/06/29 06:41:29;;;;;;;10.27;9.40;;;22.20;81.90;;;21.29;68.36;97782.38;5019797;28;21215;-73
2022/06/29 06:44:00;;;;;;;10.60;9.73;;;22.10;82.00;;;21.04;68.93;97754.91;5021688;28;20520;-73
2022/06/29 06:46:29;;;;;;;10.77;9.90;;;22.10;82.40;;;21.16;69.20;97792.97;5013502;28;20501;-73
2022/06/29 06:48:57;;;;;;;10.60;9.60;;;22.00;82.40;;;21.34;68.24;97793.34;5020330;28;20881;-70
2022/06/29 06:51:24;;;;;;;9.83;9.03;;;22.00;82.60;;;21.45;67.58;97775.59;5020227;28;20551;-71
2022/06/29 06:53:52;;;;;;;10.17;9.27;;;22.10;82.10;;;21.59;67.34;97791.38;5015841;28;20488;-76
2022/06/29 06:56:20;;;;;;;11.03;9.53;;;22.20;82.00;;;21.46;67.70;97788.25;5010628;28;20489;-78
2022/06/29 06:58:47;;;;;;;9.20;8.50;;;22.20;82.00;;;21.33;68.38;97777.97;5010859;28;20463;-79
2022/06/29 07:01:16;;;;;;;14.87;9.50;;;22.10;82.10;;;21.74;67.00;97771.19;5028600;28;20468;-78
2022/06/29 07:03:43;;;;;;;9.10;8.40;;;22.30;81.90;;;22.04;65.88;97764.44;5034685;28;20460;-78
2022/06/29 07:06:11;;;;;;;10.20;9.30;;;22.60;81.30;;;22.28;64.89;97763.53;5026470;28;20462;-76
2022/06/29 07:08:40;;;;;;;9.83;8.83;;;22.90;80.70;;;22.27;64.84;97766.56;5018117;28;20972;-77
2022/06/29 07:11:09;;;;;;;9.27;8.57;;;23.00;80.30;;;22.05;65.67;97744.06;5019088;28;20466;-76
2022/06/29 07:13:37;;;;;;;9.83;9.10;;;22.90;80.30;;;22.53;63.83;97744.19;5014583;28;20479;-77
2022/06/29 07:16:06;;;;;;;10.40;9.53;;;23.10;79.80;;;22.85;62.71;97745.28;5016126;28;20457;-78
2022/06/29 07:18:35;;;;;;;10.27;9.47;;;23.40;79.30;;;23.34;61.24;97732.81;5027582;28;20450;-78
2022/06/29 07:21:03;;;;;;;8.93;8.00;;;23.80;78.70;;;23.90;59.49;97732.72;5017539;28;20522;-76
2022/06/29 07:23:30;;;;;;;11.47;8.63;;;24.40;77.60;;;24.09;58.90;97744.78;5030393;28;20465;-77
2022/06/29 07:25:58;;;;;;;8.87;8.10;;;24.70;76.70;;;24.59;57.82;97741.91;5000074;28;20518;-77
2022/06/29 07:28:26;;;;;;;7.93;7.33;;;25.20;76.10;;;24.92;56.63;97745.53;5017501;28;20462;-76
2022/06/29 07:30:53;;;;;;;11.30;9.40;;;25.60;74.70;;;24.04;58.53;97745.72;5017500;28;20450;-76
2022/06/29 07:33:20;;;;;;;9.17;8.50;;;25.20;74.10;;;23.96;58.66;97735.38;5024039;27;20472;-77
2022/06/29 07:35:49;;;;;;;9.70;8.80;;;24.80;74.70;;;23.92;58.97;97735.19;5032118;27;20507;-79
2022/06/29 07:38:18;;;;;;;9.07;8.10;;;24.70;74.70;;;24.10;58.42;97718.81;5021776;28;20465;-77
2022/06/29 07:40:45;;;;;;;8.40;7.80;;;24.80;74.90;;;23.57;59.87;97708.09;5036865;27;20873;-78
2022/06/29 07:43:13;;;;;;;7.80;7.10;;;24.60;74.80;;;23.32;60.28;97728.75;5019291;28;20457;-78
2022/06/29 07:45:40;;;;;;;8.47;7.70;;;24.30;75.00;;;23.33;61.10;97713.84;5015880;28;20464;-77
2022/06/29 07:48:08;;;;;;;8.23;7.60;;;24.10;75.80;;;23.19;60.65;97711.88;5025031;28;20534;-78
2022/06/29 07:50:36;;;;;;;8.00;7.30;;;24.10;75.50;;;23.11;61.18;97712.56;5033824;28;20495;-78
2022/06/29 07:53:05;;;;;;;8.20;7.40;;;24.00;75.60;;;23.24;60.78;97716.47;5036614;27;20443;-77
2022/06/29 07:55:32;;;;;;;7.83;7.10;;;24.00;75.80;;;23.42;60.90;97711.16;5024469;28;20472;-76
2022/06/29 07:58:00;;;;;;;8.20;7.37;;;24.10;76.00;;;23.33;60.35;97711.09;5045944;27;20583;-77
2022/06/29 08:00:27;;;;;;;8.20;7.40;;;24.10;75.70;;;23.29;60.42;97718.34;5036615;27;20465;-78
2022/06/29 08:02:54;;;;;;;7.10;6.50;;;24.10;75.50;;;23.68;58.75;97724.41;5037939;28;20715;-77
2022/06/29 08:05:22;;;;;;;6.50;5.90;;;24.30;74.60;;;23.95;58.60;97728.22;5030003;27;20482;-76
2022/06/29 08:07:49;;;;;;;7.00;6.33;;;24.50;74.70;;;23.86;59.04;97723.47;5029268;28;20467;-77
2022/06/29 08:10:19;;;;;;;6.87;6.33;;;24.70;74.40;;;24.24;57.60;97722.34;5024383;27;20455;-78
2022/06/29 08:12:46;;;;;;;6.63;6.03;;;24.80;73.80;;;24.70;56.13;97708.50;5021229;27;20478;-78
2022/06/29 08:15:15;;;;;;;7.10;6.50;;;25.30;73.20;;;24.85;55.70;97710.91;5042692;27;20484;-78
2022/06/29 08:17:42;;;;;;;5.87;5.30;;;25.50;72.20;;;24.71;55.65;97704.63;5022894;27;20563;-78
2022/06/29 08:20:11;;;;;;;8.90;6.73;;;25.60;72.00;;;25.49;53.95;97705.28;5023470;28;20497;-76
2022/06/29 08:22:38;;;;;;;7.40;6.57;;;26.00;71.30;;;26.49;51.81;97708.28;5022655;27;20461;-78
2022/06/29 08:25:07;;;;;;;6.73;6.23;;;26.70;70.40;;;26.45;50.88;97685.97;5023149;27;20466;-76
2022/06/29 08:27:35;;;;;;;6.57;5.87;;;27.20;68.60;;;26.42;50.72;97696.88;5023646;28;20460;-77
2022/06/29 08:30:05;;;;;;;6.73;6.13;;;27.10;67.40;;;26.54;50.41;97701.78;5026292;27;20515;-75
2022/06/29 08:32:33;;;;;;;6.90;6.30;;;27.20;67.50;;;25.57;52.40;97704.50;5022014;28;20461;-75
2022/06/29 08:35:01;;;;;;;6.70;6.20;;;26.60;67.60;;;25.08;53.62;97708.06;5029083;27;20481;-75
2022/06/29 08:37:31;;;;;;;6.23;5.73;;;26.10;68.00;;;25.20;53.81;97723.22;5024327;27;20564;-77
2022/06/29 08:39:58;;;;;;;6.50;5.90;;;25.90;68.60;;;25.48;52.63;97731.28;5028514;27;20563;-69
2022/06/29 08:42:25;;;;;;;6.83;6.23;;;25.90;68.50;;;25.39;53.01;97721.00;5017719;27;20481;-79
2022/06/29 08:44:55;;;;;;;7.17;6.47;;;26.10;68.00;;;25.22;53.98;97720.94;5019827;27;20485;-72
2022/06/29 08:47:23;;;;;;;6.23;5.73;;;26.00;68.50;;;25.46;53.14;97735.19;5022799;27;20469;-71
2022/06/29 08:49:50;;;;;;;7.10;6.10;;;26.10;68.40;;;25.79;52.40;97728.47;5027470;28;20459;-71
2022/06/29 08:52:19;;;;;;;6.83;6.17;;;26.30;68.00;;;25.92;51.98;97729.44;5021146;27;20469;-71
2022/06/29 08:54:48;;;;;;;6.17;5.67;;;26.40;67.90;;;25.84;52.04;97719.16;5038523;27;20531;-70
2022/06/29 08:57:17;;;;;;;7.10;6.47;;;26.40;67.70;;;26.20;51.49;97723.63;5024420;27;20450;-70
2022/06/29 08:59:45;;;;;;;6.70;6.20;;;26.70;67.40;;;25.51;52.94;97719.59;5022101;27;20454;-72
2022/06/29 09:02:15;;;;;;;7.33;6.63;;;26.40;67.50;;;25.35;53.80;97720.03;5041542;27;20468;-71
2022/06/29 09:04:42;;;;;;;7.47;6.97;;;26.10;68.10;;;24.95;55.31;97709.00;5038861;28;20454;-72
2022/06/29 09:07:10;;;;;;;7.37;6.80;;;25.70;68.90;;;25.20;54.45;97714.94;5020210;27;20954;-71
2022/06/29 09:09:58;;;;;;;7.10;6.60;;;25.80;69.10;;;24.85;55.28;97716.41;5020633;28;21034;-71
2022/06/29 09:12:26;;;;;;;7.67;7.07;;;25.60;69.30;;;24.55;56.21;97716.06;5022240;28;20469;-73
2022/06/29 09:14:53;;;;;;;7.07;6.57;;;25.30;70.10;;;25.23;55.15;97712.34;5038234;27;21025;-73
2022/06/29 09:17:24;;;;;;;7.07;6.57;;;25.60;70.00;;;25.26;55.03;97710.91;5017347;28;20472;-72
2022/06/29 09:19:54;;;;;;;7.83;6.97;;;25.80;69.80;;;25.16;55.23;97720.28;5029310;27;20992;-73
2022/06/29 09:22:23;;;;;;;7.33;6.70;;;25.80;69.60;;;25.15;55.09;97719.47;5036432;27;20451;-72
2022/06/29 09:24:51;;;;;;;6.93;6.43;;;25.70;69.70;;;24.74;56.14;97715.03;5022813;28;20455;-72
2022/06/29 09:27:19;;;;;;;7.40;6.80;;;25.50;70.10;;;24.46;57.19;97706.88;5015970;28;20546;-72
2022/06/29 09:29:46;;;;;;;7.23;6.60;;;25.20;70.80;;;24.36;57.87;97704.41;5021519;28;20490;-72
2022/06/29 09:32:17;;;;;;;8.10;7.40;;;25.10;71.10;;;24.36;57.26;97671.28;5017814;27;20454;-72
2022/06/29 09:34:48;;;;;;;7.97;7.20;;;25.10;71.40;;;24.53;58.03;97709.22;5031593;28;20479;-72
2022/06/29 09:37:16;;;;;;;6.50;5.90;;;25.20;71.50;;;24.38;57.59;97699.38;5037052;27;20457;-72
2022/06/29 09:39:46;;;;;;;7.80;7.03;;;25.10;71.40;;;24.90;56.94;97707.97;5020925;27;20461;-72
2022/06/29 09:42:17;;;;;;;8.10;7.10;;;25.30;71.50;;;24.92;57.06;97706.84;5017856;28;20473;-71
2022/06/29 09:44:45;;;;;;;8.67;6.80;;;25.40;71.50;;;25.21;56.33;97711.03;5018784;28;20546;-72
2022/06/29 09:47:16;;;;;;;7.93;7.13;;;25.70;71.20;;;25.18;56.29;97713.31;5030168;27;20461;-71
2022/06/29 09:49:45;;;;;;;9.10;6.83;;;25.80;71.10;;;25.39;55.09;97714.69;5036917;27;20510;-71
2022/06/29 09:52:14;;;;;;;7.30;6.70;;;25.90;70.60;;;25.78;54.55;97710.25;5015062;27;20473;-72
2022/06/29 09:54:48;;;;;;;7.10;6.53;;;26.20;70.20;;;25.07;55.67;97706.44;5014385;28;20485;-71
2022/06/29 09:57:20;;;;;;;11.83;7.60;;;25.90;70.10;;;25.07;56.33;97709.19;5021525;28;20465;-70
2022/06/29 10:02:42;;;;;;;6.93;6.23;;;25.80;70.90;;;26.11;53.59;97703.41;5038309;27;20450;-71
2022/06/29 10:05:13;;;;;;;8.53;7.13;;;26.40;70.00;;;26.28;52.92;97706.19;5032554;27;20483;-71
2022/06/29 10:07:41;;;;;;;7.50;6.80;;;26.60;69.30;;;26.41;52.60;97706.34;5015287;28;20470;-72
2022/06/29 10:10:12;;;;;;;7.40;6.10;;;27.00;68.70;;;26.85;51.21;97698.75;5029553;27;20454;-71
2022/06/29 10:16:00;;;;;;;7.67;5.93;;;27.60;67.00;;;26.78;50.71;97681.00;5030183;27;20481;-73
2022/06/29 10:18:44;;;;;;;6.47;5.87;;;27.40;66.50;;;26.44;51.15;97683.53;5029923;27;20463;-72
2022/06/29 10:21:19;;;;;;;6.97;6.30;;;27.40;66.30;;;26.03;52.72;97685.66;5028260;27;20454;-71
2022/06/29 10:23:49;;;;;;;8.67;6.60;;;27.00;67.00;;;26.36;52.11;97670.53;5020956;27;20501;-73
2022/06/29 10:26:43;;;;;;;8.50;6.57;;;26.90;67.30;;;26.90;50.82;97677.56;5023197;28;20462;-72
2022/06/29 10:29:32;;;;;;;8.70;6.43;;;27.30;66.80;;;27.16;50.26;97674.69;5020854;28;20462;-72
2022/06/29 10:32:15;;;;;;;7.97;6.50;;;27.70;66.20;;;26.67;51.24;97683.31;5022054;27;20569;-73